createdAt,value
2023-05-14T00:02:14.150Z,12.10
2023-05-14T00:04:41.220Z,12.10
2023-05-14T00:07:08.100Z,12.10
2023-05-14T00:09:35.564Z,12.10
2023-05-14T00:12:02.464Z,12.10
2023-05-14T00:14:29.523Z,12.00
2023-05-14T00:16:56.480Z,12.00
2023-05-14T00:19:23.754Z,12.00
2023-05-14T00:21:50.606Z,12.00
2023-05-14T00:24:17.552Z,12.00
2023-05-14T00:26:44.688Z,12.00
2023-05-14T00:29:11.626Z,12.00
2023-05-14T00:31:38.627Z,12.00
2023-05-14T00:34:05.933Z,12.00
2023-05-14T00:36:32.880Z,12.00
2023-05-14T00:38:59.968Z,12.00
2023-05-14T00:41:27.076Z,12.00
2023-05-14T00:43:53.981Z,11.90
2023-05-14T00:46:20.939Z,11.90
2023-05-14T00:48:48.400Z,11.80
2023-05-14T00:51:16.107Z,11.80
2023-05-14T00:53:43.273Z,11.80
2023-05-14T00:56:10.820Z,11.70
2023-05-14T00:58:37.975Z,11.70
2023-05-14T01:01:05.061Z,11.70
2023-05-14T01:03:32.259Z,11.70
2023-05-14T01:06:08.410Z,11.70
2023-05-14T01:08:44.606Z,11.70
2023-05-14T01:11:19.512Z,11.70
2023-05-14T01:13:46.474Z,11.70
2023-05-14T01:16:14.475Z,11.70
2023-05-14T01:18:43.190Z,11.60
2023-05-14T01:21:28.925Z,11.60
2023-05-14T01:23:55.823Z,11.60
2023-05-14T01:26:22.911Z,11.60
2023-05-14T01:28:51.838Z,11.60
2023-05-14T01:31:25.271Z,11.60
2023-05-14T01:33:52.964Z,11.60
2023-05-14T01:36:20.270Z,11.60
2023-05-14T01:38:49.669Z,11.60
2023-05-14T01:41:16.793Z,11.50
2023-05-14T01:43:44.786Z,11.50
2023-05-14T01:46:11.701Z,11.50
2023-05-14T01:48:38.679Z,11.50
2023-05-14T01:51:06.650Z,11.50
2023-05-14T01:53:35.499Z,11.50
2023-05-14T01:56:02.410Z,11.60
2023-05-14T01:58:29.416Z,11.50
2023-05-14T02:00:56.551Z,11.50
2023-05-14T02:03:23.935Z,11.40
2023-05-14T02:05:51.207Z,11.40
2023-05-14T02:08:18.502Z,11.40
2023-05-14T02:10:45.527Z,11.40
2023-05-14T02:13:12.458Z,11.40
2023-05-14T02:15:39.394Z,11.40
2023-05-14T02:18:06.455Z,11.50
2023-05-14T02:20:33.651Z,11.40
2023-05-14T02:23:00.551Z,11.40
2023-05-14T02:25:27.455Z,11.40
2023-05-14T02:27:54.388Z,11.40
2023-05-14T02:30:22.039Z,11.40
2023-05-14T02:32:49.316Z,11.40
2023-05-14T02:35:16.562Z,11.40
2023-05-14T02:37:43.471Z,11.40
2023-05-14T02:40:10.698Z,11.40
2023-05-14T02:42:37.845Z,11.40
2023-05-14T02:45:05.687Z,11.40
2023-05-14T02:47:33.041Z,11.40
2023-05-14T02:49:59.970Z,11.40
2023-05-14T02:52:26.894Z,11.40
2023-05-14T02:54:53.793Z,11.40
2023-05-14T02:57:21.353Z,11.40
2023-05-14T02:59:48.250Z,11.50
2023-05-14T03:02:15.787Z,11.40
2023-05-14T03:04:43.417Z,11.40
2023-05-14T03:07:10.642Z,11.40
2023-05-14T03:09:38.436Z,11.40
2023-05-14T03:12:06.030Z,11.40
2023-05-14T03:14:32.910Z,11.40
2023-05-14T03:16:59.908Z,11.40
2023-05-14T03:19:27.108Z,11.40
2023-05-14T03:21:54.097Z,11.40
2023-05-14T03:24:21.015Z,11.30
2023-05-14T03:26:48.113Z,11.30
2023-05-14T03:29:18.062Z,11.30
2023-05-14T03:31:45.264Z,11.30
2023-05-14T03:34:12.302Z,11.40
2023-05-14T03:36:39.838Z,11.30
2023-05-14T03:39:09.819Z,11.30
2023-05-14T03:41:37.579Z,11.30
2023-05-14T03:44:06.392Z,11.40
2023-05-14T03:46:33.321Z,11.40
2023-05-14T03:49:00.375Z,11.40
2023-05-14T03:51:27.306Z,11.40
2023-05-14T03:53:54.245Z,11.40
2023-05-14T03:56:21.279Z,11.30
2023-05-14T03:58:48.181Z,11.40
2023-05-14T04:01:15.198Z,11.40
2023-05-14T04:03:42.276Z,11.30
2023-05-14T04:06:10.211Z,11.30
2023-05-14T04:08:37.146Z,11.40
2023-05-14T04:11:04.419Z,11.40
2023-05-14T04:13:31.314Z,11.40
2023-05-14T04:15:58.668Z,11.40
2023-05-14T04:18:25.743Z,11.40
2023-05-14T04:20:52.809Z,11.40
2023-05-14T04:23:19.710Z,11.40
2023-05-14T04:25:46.624Z,11.40
2023-05-14T04:28:13.579Z,11.40
2023-05-14T04:30:40.643Z,11.40
2023-05-14T04:33:07.767Z,11.40
2023-05-14T04:35:34.967Z,11.40
2023-05-14T04:38:01.931Z,11.40
2023-05-14T04:40:28.812Z,11.40
2023-05-14T04:42:55.702Z,11.50
2023-05-14T04:45:22.662Z,11.40
2023-05-14T04:47:49.697Z,11.40
2023-05-14T04:50:16.691Z,11.40
2023-05-14T04:52:43.848Z,11.40
2023-05-14T04:55:10.724Z,11.40
2023-05-14T04:57:37.630Z,11.40
2023-05-14T05:00:07.896Z,11.40
2023-05-14T05:02:34.983Z,11.40
2023-05-14T05:05:01.911Z,11.40
2023-05-14T05:07:28.793Z,11.40
2023-05-14T05:09:55.728Z,11.40
2023-05-14T05:12:23.087Z,11.40
2023-05-14T05:14:49.968Z,11.40
2023-05-14T05:17:17.007Z,11.50
2023-05-14T05:19:44.619Z,11.40
2023-05-14T05:22:11.850Z,11.50
2023-05-14T05:24:38.838Z,11.50
2023-05-14T05:27:06.184Z,11.50
2023-05-14T05:29:33.660Z,11.50
2023-05-14T05:32:00.786Z,11.60
2023-05-14T05:34:28.111Z,11.60
2023-05-14T05:36:55.032Z,11.50
2023-05-14T05:39:21.918Z,11.60
2023-05-14T05:41:48.871Z,11.50
2023-05-14T05:44:15.842Z,11.60
2023-05-14T05:46:42.999Z,11.60
2023-05-14T05:49:09.912Z,11.70
2023-05-14T05:51:36.794Z,11.70
2023-05-14T05:54:03.760Z,11.60
2023-05-14T05:56:30.884Z,11.60
2023-05-14T05:58:57.774Z,11.50
2023-05-14T06:01:24.765Z,11.60
2023-05-14T06:03:51.675Z,11.60
2023-05-14T06:06:18.558Z,11.60
2023-05-14T06:08:45.582Z,11.70
2023-05-14T06:11:12.812Z,11.70
2023-05-14T06:13:39.709Z,11.80
2023-05-14T06:16:06.697Z,11.70
2023-05-14T06:18:33.723Z,11.70
2023-05-14T06:21:00.705Z,11.70
2023-05-14T06:23:27.570Z,11.70
2023-05-14T06:25:54.481Z,11.70
2023-05-14T06:28:21.440Z,11.70
2023-05-14T06:30:50.399Z,11.80
2023-05-14T06:33:19.310Z,11.80
2023-05-14T06:35:47.512Z,11.80
2023-05-14T06:38:14.484Z,11.80
2023-05-14T06:40:41.398Z,11.90
2023-05-14T06:43:08.320Z,11.90
2023-05-14T06:45:35.962Z,11.90
2023-05-14T06:48:03.042Z,11.90
2023-05-14T06:50:30.107Z,11.90
2023-05-14T06:52:57.037Z,12.00
2023-05-14T06:55:23.939Z,12.00
2023-05-14T06:57:51.061Z,12.10
2023-05-14T07:00:18.117Z,12.10
2023-05-14T07:02:45.164Z,12.10
2023-05-14T07:05:12.241Z,12.10
2023-05-14T07:07:39.243Z,12.20
2023-05-14T07:10:06.693Z,12.20
2023-05-14T07:12:33.652Z,12.20
2023-05-14T07:15:00.838Z,12.20
2023-05-14T07:17:27.894Z,12.20
2023-05-14T07:19:56.043Z,12.30
2023-05-14T07:22:23.180Z,12.30
2023-05-14T07:24:50.462Z,12.30
2023-05-14T07:27:17.499Z,12.40
2023-05-14T07:29:44.408Z,12.40
2023-05-14T07:32:12.811Z,12.40
2023-05-14T07:34:41.702Z,12.50
2023-05-14T07:37:08.947Z,12.40
2023-05-14T07:39:36.122Z,12.40
2023-05-14T07:42:03.160Z,12.50
2023-05-14T07:44:30.031Z,12.50
2023-05-14T07:46:57.025Z,12.50
2023-05-14T07:49:23.957Z,12.60
2023-05-14T07:51:50.874Z,12.60
2023-05-14T07:54:17.844Z,12.60
2023-05-14T07:56:44.920Z,12.60
2023-05-14T07:59:11.765Z,12.70
2023-05-14T08:01:39.495Z,12.70
2023-05-14T08:04:06.706Z,12.70
2023-05-14T08:06:34.128Z,12.70
2023-05-14T08:09:01.043Z,12.70
2023-05-14T08:11:27.949Z,12.80
2023-05-14T08:13:54.814Z,12.80
2023-05-14T08:16:21.808Z,12.80
2023-05-14T08:18:48.788Z,12.80
2023-05-14T08:21:16.068Z,12.90
2023-05-14T08:23:42.981Z,13.00
2023-05-14T08:26:09.949Z,13.00
2023-05-14T08:28:36.904Z,13.00
2023-05-14T08:31:03.855Z,13.00
2023-05-14T08:33:30.782Z,13.10
2023-05-14T08:36:00.592Z,13.20
2023-05-14T08:38:27.622Z,13.10
2023-05-14T08:40:56.828Z,13.10
2023-05-14T08:43:26.078Z,13.00
2023-05-14T08:45:57.789Z,13.00
2023-05-14T08:48:26.884Z,13.10
2023-05-14T08:50:53.936Z,13.20
2023-05-14T08:53:20.870Z,13.20
2023-05-14T08:55:48.235Z,13.20
2023-05-14T08:58:15.181Z,13.20
2023-05-14T09:00:42.317Z,13.30
2023-05-14T09:03:09.954Z,13.30
2023-05-14T09:05:37.338Z,13.30
2023-05-14T09:08:04.221Z,13.30
2023-05-14T09:10:31.125Z,13.40
2023-05-14T09:12:58.265Z,13.40
2023-05-14T09:15:26.528Z,13.30
2023-05-14T09:17:53.612Z,13.40
2023-05-14T09:20:21.137Z,13.40
2023-05-14T09:22:48.381Z,13.40
2023-05-14T09:25:15.734Z,13.30
2023-05-14T09:27:42.684Z,13.20
2023-05-14T09:30:10.830Z,13.10
2023-05-14T09:32:44.544Z,13.20
2023-05-14T09:35:17.809Z,13.10
2023-05-14T09:37:46.401Z,13.10
2023-05-14T09:40:13.745Z,13.10
2023-05-14T09:42:41.431Z,13.10
2023-05-14T09:45:11.353Z,13.10
2023-05-14T09:47:38.719Z,13.10
2023-05-14T09:50:06.293Z,13.10
2023-05-14T09:52:33.428Z,13.00
2023-05-14T09:55:00.714Z,13.00
2023-05-14T09:57:27.822Z,13.00
2023-05-14T09:59:54.744Z,13.00
2023-05-14T10:02:25.725Z,13.00
2023-05-14T10:04:58.912Z,13.10
2023-05-14T10:07:31.674Z,13.20
2023-05-14T10:10:01.502Z,13.20
2023-05-14T10:12:34.242Z,13.20
2023-05-14T10:15:07.044Z,13.20
2023-05-14T10:17:34.998Z,13.20
2023-05-14T10:20:02.883Z,13.20
2023-05-14T10:22:32.204Z,13.20
2023-05-14T10:25:00.009Z,13.30
2023-05-14T10:27:27.034Z,13.30
2023-05-14T10:29:54.760Z,13.40
2023-05-14T10:32:24.426Z,13.40
2023-05-14T10:34:52.200Z,13.40
2023-05-14T10:37:20.942Z,13.40
2023-05-14T10:39:49.862Z,13.40
2023-05-14T10:42:39.785Z,13.30
2023-05-14T10:45:08.401Z,13.40
2023-05-14T10:47:36.413Z,13.40
2023-05-14T10:50:05.087Z,13.30
2023-05-14T10:52:32.526Z,13.40
2023-05-14T10:55:02.892Z,13.40
2023-05-14T10:57:31.668Z,13.40
2023-05-14T10:59:59.892Z,13.40
2023-05-14T11:02:28.337Z,13.40
2023-05-14T11:05:00.192Z,13.40
2023-05-14T11:07:31.682Z,13.30
2023-05-14T11:10:09.267Z,13.30
2023-05-14T11:12:38.819Z,13.30
2023-05-14T11:15:07.287Z,13.30
2023-05-14T11:17:35.151Z,13.30
2023-05-14T11:20:02.518Z,13.30
2023-05-14T11:22:29.484Z,13.30
2023-05-14T11:24:56.485Z,13.30
2023-05-14T11:27:24.059Z,13.30
2023-05-14T11:29:51.125Z,13.30
2023-05-14T11:32:18.300Z,13.30
2023-05-14T11:34:45.902Z,13.30
2023-05-14T11:37:13.743Z,13.30
2023-05-14T11:39:47.089Z,13.30
2023-05-14T11:42:16.290Z,13.30
2023-05-14T11:44:44.641Z,13.30
2023-05-14T11:47:12.046Z,13.30
2023-05-14T11:49:39.076Z,13.30
2023-05-14T11:52:06.952Z,13.20
2023-05-14T11:54:34.376Z,13.20
2023-05-14T11:57:02.552Z,13.20
2023-05-14T11:59:31.492Z,13.20
2023-05-14T12:01:58.757Z,13.20
2023-05-14T12:04:25.837Z,13.20
2023-05-14T12:06:53.316Z,13.20
2023-05-14T12:09:20.782Z,13.20
2023-05-14T12:11:48.006Z,13.10
2023-05-14T12:14:16.200Z,13.10
2023-05-14T12:16:46.902Z,13.10
2023-05-14T12:19:18.805Z,13.10
2023-05-14T12:21:47.365Z,13.10
2023-05-14T12:24:15.796Z,13.10
2023-05-14T12:26:46.886Z,13.10
2023-05-14T12:29:14.917Z,13.10
2023-05-14T12:31:46.618Z,13.10
2023-05-14T12:34:13.711Z,13.10
2023-05-14T12:36:40.657Z,13.10
2023-05-14T12:39:07.679Z,13.10
2023-05-14T12:41:34.529Z,13.00
2023-05-14T12:44:02.576Z,13.00
2023-05-14T12:46:29.534Z,13.00
2023-05-14T12:48:56.901Z,13.00
2023-05-14T12:51:24.154Z,13.00
2023-05-14T12:53:52.303Z,13.00
2023-05-14T12:56:19.420Z,13.00
2023-05-14T12:58:47.607Z,13.00
2023-05-14T13:01:14.647Z,13.00
2023-05-14T13:03:41.809Z,13.00
2023-05-14T13:06:08.981Z,13.00
2023-05-14T13:08:35.844Z,13.00
2023-05-14T13:11:02.767Z,13.00
2023-05-14T13:13:29.779Z,13.00
2023-05-14T13:15:56.851Z,13.00
2023-05-14T13:18:24.063Z,13.00
2023-05-14T13:20:51.897Z,13.00
2023-05-14T13:23:18.821Z,13.00
2023-05-14T13:25:47.977Z,13.10
2023-05-14T13:28:16.193Z,13.00
2023-05-14T13:31:02.762Z,13.00
2023-05-14T13:33:29.700Z,13.00
2023-05-14T13:35:56.583Z,13.00
2023-05-14T13:38:23.523Z,13.00
2023-05-14T13:40:50.390Z,13.00
2023-05-14T13:43:17.243Z,12.90
2023-05-14T13:45:44.160Z,12.90
2023-05-14T13:48:11.018Z,13.00
2023-05-14T13:50:37.836Z,13.00
2023-05-14T13:53:04.686Z,13.00
2023-05-14T13:55:31.795Z,13.00
2023-05-14T13:57:59.512Z,12.90
2023-05-14T14:00:27.652Z,12.90
2023-05-14T14:02:54.568Z,12.90
2023-05-14T14:05:21.703Z,12.90
2023-05-14T14:07:50.497Z,12.90
2023-05-14T14:10:19.859Z,12.90
2023-05-14T14:12:46.827Z,12.80
2023-05-14T14:15:14.068Z,12.80
2023-05-14T14:17:41.957Z,12.80
2023-05-14T14:20:09.635Z,12.80
2023-05-14T14:22:37.089Z,12.80
2023-05-14T14:25:04.237Z,12.70
2023-05-14T14:27:32.275Z,12.70
2023-05-14T14:29:59.260Z,12.70
2023-05-14T14:32:26.161Z,12.70
2023-05-14T14:34:53.041Z,12.70
2023-05-14T14:37:21.239Z,12.70
2023-05-14T14:39:50.017Z,12.60
2023-05-14T14:42:16.884Z,12.60
2023-05-14T14:44:43.837Z,12.60
2023-05-14T14:47:10.795Z,12.60
2023-05-14T14:49:39.742Z,12.50
2023-05-14T14:52:06.681Z,12.60
2023-05-14T14:54:33.660Z,12.50
2023-05-14T14:57:00.595Z,12.50
2023-05-14T14:59:27.503Z,12.50
2023-05-14T15:01:55.073Z,12.50
2023-05-14T15:04:22.020Z,12.50
2023-05-14T15:06:49.069Z,12.50
2023-05-14T15:09:16.270Z,12.50
2023-05-14T15:11:43.328Z,12.40
2023-05-14T15:14:10.309Z,12.40
2023-05-14T15:16:37.315Z,12.40
2023-05-14T15:19:04.378Z,12.40
2023-05-14T15:21:32.093Z,12.40
2023-05-14T15:23:59.035Z,12.40
2023-05-14T15:26:26.740Z,12.40
2023-05-14T15:28:53.694Z,12.40
2023-05-14T15:31:21.172Z,12.40
2023-05-14T15:33:48.161Z,12.30
2023-05-14T15:36:15.187Z,12.30
2023-05-14T15:38:42.603Z,12.30
2023-05-14T15:41:09.454Z,12.30
2023-05-14T15:43:36.488Z,12.40
2023-05-14T15:46:03.506Z,12.40
2023-05-14T15:48:30.915Z,12.40
2023-05-14T15:50:58.925Z,12.40
2023-05-14T15:53:26.097Z,12.40
2023-05-14T15:55:52.997Z,12.40
2023-05-14T15:58:20.229Z,12.40
2023-05-14T16:00:47.088Z,12.30
2023-05-14T16:03:14.198Z,12.30
2023-05-14T16:05:42.851Z,12.30
2023-05-14T16:08:09.758Z,12.30
2023-05-14T16:10:36.639Z,12.30
2023-05-14T16:13:03.775Z,12.30
2023-05-14T16:15:30.803Z,12.30
2023-05-14T16:17:57.699Z,12.30
2023-05-14T16:20:24.914Z,12.30
2023-05-14T16:22:52.049Z,12.30
2023-05-14T16:25:18.913Z,12.30
2023-05-14T16:27:45.855Z,12.30
2023-05-14T16:30:13.335Z,12.30
2023-05-14T16:32:42.109Z,12.30
2023-05-14T16:35:09.975Z,12.30
2023-05-14T16:37:36.984Z,12.30
2023-05-14T16:40:04.053Z,12.30
2023-05-14T16:42:31.272Z,12.30
2023-05-14T16:44:58.213Z,12.30
2023-05-14T16:47:25.463Z,12.30
2023-05-14T16:49:52.582Z,12.40
2023-05-14T16:52:20.044Z,12.30
2023-05-14T16:54:47.140Z,12.30
2023-05-14T16:57:14.047Z,12.40
2023-05-14T16:59:41.254Z,12.40
2023-05-14T17:02:08.687Z,12.30
2023-05-14T17:04:38.815Z,12.30
2023-05-14T17:07:06.065Z,12.40
2023-05-14T17:09:33.294Z,12.40
2023-05-14T17:12:00.237Z,12.40
2023-05-14T17:14:27.469Z,12.40
2023-05-14T17:16:54.464Z,12.40
2023-05-14T17:19:21.684Z,12.40
2023-05-14T17:21:48.619Z,12.40
2023-05-14T17:24:16.166Z,12.30
2023-05-14T17:26:43.182Z,12.30
2023-05-14T17:29:10.432Z,12.30
2023-05-14T17:31:37.587Z,12.30
2023-05-14T17:34:04.809Z,12.30
2023-05-14T17:36:32.750Z,12.30
2023-05-14T17:39:00.087Z,12.30
2023-05-14T17:41:27.706Z,12.30
2023-05-14T17:43:55.056Z,12.30
2023-05-14T17:46:22.496Z,12.30
2023-05-14T17:48:49.873Z,12.40
2023-05-14T17:51:17.467Z,12.40
2023-05-14T17:53:44.797Z,12.30
2023-05-14T17:56:12.427Z,12.40
2023-05-14T17:58:39.744Z,12.40
2023-05-14T18:01:07.086Z,12.40
2023-05-14T18:03:34.470Z,12.40
2023-05-14T18:06:01.779Z,12.30
2023-05-14T18:08:28.870Z,12.40
2023-05-14T18:10:58.230Z,12.40
2023-05-14T18:13:25.354Z,12.20
2023-05-14T18:15:54.295Z,12.40
2023-05-14T18:18:21.877Z,12.40
2023-05-14T18:20:49.837Z,12.40
2023-05-14T18:23:17.006Z,12.40
2023-05-14T18:25:44.220Z,12.40
2023-05-14T18:28:12.026Z,12.40
2023-05-14T18:30:39.710Z,12.40
2023-05-14T18:33:07.161Z,12.40
2023-05-14T18:35:35.265Z,12.40
2023-05-14T18:38:02.918Z,12.40
2023-05-14T18:40:29.833Z,12.40
2023-05-14T18:42:57.257Z,12.40
2023-05-14T18:45:24.670Z,12.40
2023-05-14T18:47:52.456Z,12.40
2023-05-14T18:50:19.834Z,12.40
2023-05-14T18:52:46.917Z,12.40
2023-05-14T18:55:14.182Z,12.40
2023-05-14T18:57:44.742Z,12.40
2023-05-14T19:00:12.118Z,12.50
2023-05-14T19:02:39.445Z,12.50
2023-05-14T19:05:07.189Z,12.50
2023-05-14T19:07:34.591Z,12.50
2023-05-14T19:10:01.694Z,12.50
2023-05-14T19:12:28.701Z,12.50
2023-05-14T19:14:55.642Z,12.50
2023-05-14T19:17:23.224Z,12.50
2023-05-14T19:19:52.223Z,12.50
2023-05-14T19:22:19.739Z,12.50
2023-05-14T19:24:46.869Z,12.50
2023-05-14T19:27:16.481Z,12.50
2023-05-14T19:29:44.561Z,12.50
2023-05-14T19:32:11.499Z,12.50
2023-05-14T19:34:38.746Z,12.50
2023-05-14T19:37:06.187Z,12.50
2023-05-14T19:39:33.506Z,12.50
2023-05-14T19:42:00.365Z,12.50
2023-05-14T19:44:27.611Z,12.50
2023-05-14T19:46:55.023Z,12.50
2023-05-14T19:49:22.166Z,12.50
2023-05-14T19:51:49.151Z,12.50
2023-05-14T19:54:16.496Z,12.50
2023-05-14T19:56:43.838Z,12.50
2023-05-14T19:59:10.821Z,12.50
2023-05-14T20:01:37.888Z,12.50
2023-05-14T20:04:05.196Z,12.50
2023-05-14T20:06:32.216Z,12.50
2023-05-14T20:08:59.337Z,12.60
2023-05-14T20:11:27.031Z,12.60
2023-05-14T20:13:54.052Z,12.60
2023-05-14T20:16:21.989Z,12.60
2023-05-14T20:18:49.561Z,12.60
2023-05-14T20:21:16.569Z,12.60
2023-05-14T20:23:43.538Z,12.60
2023-05-14T20:26:10.526Z,12.60
2023-05-14T20:28:37.471Z,12.60
2023-05-14T20:31:04.725Z,12.60
2023-05-14T20:33:31.846Z,12.60
2023-05-14T20:35:59.090Z,12.60
2023-05-14T20:38:29.355Z,12.60
2023-05-14T20:40:56.623Z,12.60
2023-05-14T20:43:23.728Z,12.60
2023-05-14T20:45:50.600Z,12.60
2023-05-14T20:48:17.800Z,12.60
2023-05-14T20:50:44.768Z,12.60
2023-05-14T20:53:11.646Z,12.60
2023-05-14T20:55:39.419Z,12.60
2023-05-14T20:58:06.313Z,12.60
2023-05-14T21:00:33.262Z,12.60
2023-05-14T21:03:00.294Z,12.60
2023-05-14T21:05:27.741Z,12.60
2023-05-14T21:07:54.884Z,12.60
2023-05-14T21:10:21.853Z,12.60
2023-05-14T21:12:48.847Z,12.60
2023-05-14T21:15:15.838Z,12.60
2023-05-14T21:17:42.779Z,12.60
2023-05-14T21:20:11.978Z,12.60
2023-05-14T21:22:38.911Z,12.60
2023-05-14T21:25:05.952Z,12.60
2023-05-14T21:27:32.964Z,12.60
2023-05-14T21:29:59.778Z,12.60
2023-05-14T21:32:26.747Z,12.60
2023-05-14T21:34:53.721Z,12.60
2023-05-14T21:37:21.331Z,12.60
2023-05-14T21:39:48.235Z,12.60
2023-05-14T21:42:16.236Z,12.60
2023-05-14T21:44:43.212Z,12.60
2023-05-14T21:47:10.172Z,12.60
2023-05-14T21:49:37.069Z,12.50
2023-05-14T21:52:04.507Z,12.60
2023-05-14T21:54:31.672Z,12.60
2023-05-14T21:56:58.798Z,12.60
2023-05-14T21:59:25.621Z,12.60
2023-05-14T22:02:06.186Z,12.50
2023-05-14T22:04:34.456Z,12.60
2023-05-14T22:07:01.629Z,12.60
2023-05-14T22:09:28.982Z,12.60
2023-05-14T22:11:56.827Z,12.60
2023-05-14T22:14:23.732Z,12.60
2023-05-14T22:16:50.759Z,12.60
2023-05-14T22:19:17.661Z,12.60
2023-05-14T22:21:44.694Z,12.60
2023-05-14T22:24:11.555Z,12.60
2023-05-14T22:26:38.680Z,12.60
2023-05-14T22:29:05.606Z,12.60
2023-05-14T22:31:32.545Z,12.60
2023-05-14T22:33:59.460Z,12.60
2023-05-14T22:36:26.354Z,12.60
2023-05-14T22:38:53.216Z,12.60
2023-05-14T22:41:22.048Z,12.60
2023-05-14T22:43:49.489Z,12.60
2023-05-14T22:46:16.515Z,12.60
2023-05-14T22:48:43.406Z,12.60
2023-05-14T22:51:10.295Z,12.60
2023-05-14T22:53:37.242Z,12.60
2023-05-14T22:56:04.351Z,12.60
2023-05-14T22:58:31.388Z,12.60
2023-05-14T23:00:58.300Z,12.60
2023-05-14T23:03:25.209Z,12.60
2023-05-14T23:05:52.237Z,12.60
2023-05-14T23:08:19.114Z,12.60
2023-05-14T23:10:45.947Z,12.60
2023-05-14T23:13:12.851Z,12.60
2023-05-14T23:15:39.795Z,12.60
2023-05-14T23:18:07.972Z,12.60
2023-05-14T23:20:35.027Z,12.60
2023-05-14T23:23:01.960Z,12.60
2023-05-14T23:25:29.013Z,12.60
2023-05-14T23:27:55.930Z,12.60
2023-05-14T23:30:22.855Z,12.60
2023-05-14T23:32:49.773Z,12.60
2023-05-14T23:35:16.645Z,12.60
2023-05-14T23:37:47.329Z,12.60
2023-05-14T23:40:15.778Z,12.60
2023-05-14T23:42:43.222Z,12.60
2023-05-14T23:45:10.720Z,12.60
2023-05-14T23:47:37.676Z,12.60
2023-05-14T23:50:04.805Z,12.60
2023-05-14T23:52:31.740Z,12.60
2023-05-14T23:54:58.791Z,12.60
2023-05-14T23:57:27.265Z,12.60
2023-05-14T23:59:54.221Z,12.60
